KEEO

Meeker Coulter Field Airport

Meeker, Colorado, USA
METAR KEEO 181329Z AUTO 24013KT 1SM -SN BR FEW004 BKN009 OVC013 M01/M02 A2989 RMK AO2 P0002 T10061022
Observed Flight Rules
Jan-18 @ 13:29 UTC (18 minutes ago) Instrument Flight Rules
Wind Visibility Clouds Conditions
240° at 13 knots 1 miles
  • Few at 400' AGL
  • Broken at 900' AGL
  • Overcast at 1,300' AGL
  • Light Snow
  • Mist
Temperatures Readings Precipitation
Current -1°C / 30°F
Dewpoint -2°C / 28°F
Humidity 93%
Altimeter 29.89" Hg
Pressure 1012.22 hPa
Elevation 1930
Current Rain 0.02
METAR KEEO 181329Z AUTO 24013KT 1SM -SN BR FEW004 BKN009 OVC013 M01/M02 A2989 RMK AO2 P0002 T10061022
Observed Flight Rules
Jan-18 @ 13:29 UTC
(18 minutes ago)
IFR
Wind Visibility
240° at 13 knots 1 miles
Clouds
  • Few at 400' AGL
  • Broken at 900' AGL
  • Overcast at 1,300' AGL
Conditions
  • Light Snow
  • Mist
Temperature Dewpoint
-1°C / 30°F -2°C / 28°F
Humidity Altimeter Pressure
93% 29.89" Hg 1012.22 hPa
Current Rain
0.02